sensor_id;sensor_type;location;lat;lon;timestamp;P1;durP1;ratioP1;P2;durP2;ratioP2
25073;SDS011;13066;52.042;5.648;2023-05-10T00:00:48;47.95;;;32.13;;
25073;SDS011;13066;52.042;5.648;2023-05-10T00:03:17;51.50;;;33.08;;
25073;SDS011;13066;52.042;5.648;2023-05-10T00:05:45;56.10;;;34.72;;
25073;SDS011;13066;52.042;5.648;2023-05-10T00:08:13;55.55;;;33.10;;
25073;SDS011;13066;52.042;5.648;2023-05-10T00:10:41;55.83;;;32.88;;
25073;SDS011;13066;52.042;5.648;2023-05-10T00:13:09;50.65;;;32.15;;
25073;SDS011;13066;52.042;5.648;2023-05-10T00:15:38;49.42;;;32.33;;
25073;SDS011;13066;52.042;5.648;2023-05-10T00:18:06;51.92;;;34.53;;
25073;SDS011;13066;52.042;5.648;2023-05-10T00:20:35;53.00;;;34.20;;
25073;SDS011;13066;52.042;5.648;2023-05-10T00:23:03;50.17;;;32.38;;
25073;SDS011;13066;52.042;5.648;2023-05-10T00:25:31;50.67;;;33.92;;
25073;SDS011;13066;52.042;5.648;2023-05-10T00:27:59;53.88;;;35.30;;
25073;SDS011;13066;52.042;5.648;2023-05-10T00:30:28;51.00;;;33.58;;
25073;SDS011;13066;52.042;5.648;2023-05-10T00:32:57;52.60;;;34.65;;
25073;SDS011;13066;52.042;5.648;2023-05-10T00:35:25;47.70;;;33.10;;
25073;SDS011;13066;52.042;5.648;2023-05-10T00:37:53;54.35;;;35.60;;
25073;SDS011;13066;52.042;5.648;2023-05-10T00:40:21;51.20;;;34.60;;
25073;SDS011;13066;52.042;5.648;2023-05-10T00:42:53;52.15;;;34.97;;
25073;SDS011;13066;52.042;5.648;2023-05-10T00:45:22;53.85;;;35.08;;
25073;SDS011;13066;52.042;5.648;2023-05-10T00:47:50;54.95;;;36.33;;
25073;SDS011;13066;52.042;5.648;2023-05-10T00:50:23;54.10;;;36.25;;
25073;SDS011;13066;52.042;5.648;2023-05-10T00:52:52;53.65;;;35.80;;
25073;SDS011;13066;52.042;5.648;2023-05-10T00:55:20;54.75;;;36.65;;
25073;SDS011;13066;52.042;5.648;2023-05-10T00:57:48;56.97;;;38.20;;
25073;SDS011;13066;52.042;5.648;2023-05-10T01:00:17;58.35;;;38.13;;
25073;SDS011;13066;52.042;5.648;2023-05-10T01:02:46;59.25;;;37.40;;
25073;SDS011;13066;52.042;5.648;2023-05-10T01:05:16;61.80;;;39.47;;
25073;SDS011;13066;52.042;5.648;2023-05-10T01:07:46;61.53;;;37.70;;
25073;SDS011;13066;52.042;5.648;2023-05-10T01:10:15;72.15;;;41.13;;
25073;SDS011;13066;52.042;5.648;2023-05-10T01:12:44;68.38;;;39.28;;
25073;SDS011;13066;52.042;5.648;2023-05-10T01:15:14;73.05;;;42.00;;
25073;SDS011;13066;52.042;5.648;2023-05-10T01:17:44;72.95;;;39.90;;
25073;SDS011;13066;52.042;5.648;2023-05-10T01:20:13;74.25;;;41.60;;
25073;SDS011;13066;52.042;5.648;2023-05-10T01:22:50;74.07;;;42.08;;
25073;SDS011;13066;52.042;5.648;2023-05-10T01:25:47;73.95;;;40.45;;
25073;SDS011;13066;52.042;5.648;2023-05-10T01:28:39;68.93;;;39.40;;
25073;SDS011;13066;52.042;5.648;2023-05-10T01:31:18;68.45;;;39.80;;
25073;SDS011;13066;52.042;5.648;2023-05-10T01:33:55;67.22;;;38.72;;
25073;SDS011;13066;52.042;5.648;2023-05-10T01:36:26;67.63;;;39.55;;
25073;SDS011;13066;52.042;5.648;2023-05-10T01:39:01;62.90;;;39.40;;
25073;SDS011;13066;52.042;5.648;2023-05-10T01:41:34;66.20;;;39.22;;
25073;SDS011;13066;52.042;5.648;2023-05-10T01:44:09;67.43;;;38.47;;
25073;SDS011;13066;52.042;5.648;2023-05-10T01:46:42;68.53;;;38.22;;
25073;SDS011;13066;52.042;5.648;2023-05-10T01:49:13;67.22;;;38.25;;
25073;SDS011;13066;52.042;5.648;2023-05-10T01:51:51;70.72;;;38.00;;
25073;SDS011;13066;52.042;5.648;2023-05-10T01:54:21;63.67;;;36.97;;
25073;SDS011;13066;52.042;5.648;2023-05-10T01:56:52;68.88;;;38.53;;
25073;SDS011;13066;52.042;5.648;2023-05-10T01:59:26;63.15;;;37.45;;
25073;SDS011;13066;52.042;5.648;2023-05-10T02:01:57;65.82;;;37.75;;
25073;SDS011;13066;52.042;5.648;2023-05-10T02:04:30;63.97;;;37.45;;
25073;SDS011;13066;52.042;5.648;2023-05-10T02:06:59;61.65;;;36.03;;
25073;SDS011;13066;52.042;5.648;2023-05-10T02:09:27;64.68;;;36.80;;
25073;SDS011;13066;52.042;5.648;2023-05-10T02:11:56;69.95;;;39.25;;
25073;SDS011;13066;52.042;5.648;2023-05-10T02:14:26;73.50;;;39.70;;
25073;SDS011;13066;52.042;5.648;2023-05-10T02:16:56;65.53;;;37.15;;
25073;SDS011;13066;52.042;5.648;2023-05-10T02:19:27;66.95;;;37.55;;
25073;SDS011;13066;52.042;5.648;2023-05-10T02:21:56;70.97;;;39.13;;
25073;SDS011;13066;52.042;5.648;2023-05-10T02:24:26;74.15;;;39.45;;
25073;SDS011;13066;52.042;5.648;2023-05-10T02:26:55;71.15;;;38.88;;
25073;SDS011;13066;52.042;5.648;2023-05-10T02:29:24;73.15;;;39.05;;
25073;SDS011;13066;52.042;5.648;2023-05-10T02:31:53;64.28;;;38.85;;
25073;SDS011;13066;52.042;5.648;2023-05-10T02:34:22;73.00;;;39.45;;
25073;SDS011;13066;52.042;5.648;2023-05-10T02:36:52;79.35;;;38.92;;
25073;SDS011;13066;52.042;5.648;2023-05-10T02:39:21;71.43;;;39.40;;
25073;SDS011;13066;52.042;5.648;2023-05-10T02:41:49;78.35;;;40.90;;
25073;SDS011;13066;52.042;5.648;2023-05-10T02:44:18;75.88;;;39.75;;
25073;SDS011;13066;52.042;5.648;2023-05-10T02:46:46;77.03;;;40.72;;
25073;SDS011;13066;52.042;5.648;2023-05-10T02:49:15;83.05;;;41.85;;
25073;SDS011;13066;52.042;5.648;2023-05-10T02:51:44;78.28;;;41.25;;
25073;SDS011;13066;52.042;5.648;2023-05-10T02:54:19;76.00;;;40.70;;
25073;SDS011;13066;52.042;5.648;2023-05-10T02:56:50;78.82;;;41.67;;
25073;SDS011;13066;52.042;5.648;2023-05-10T02:59:19;80.93;;;42.35;;
25073;SDS011;13066;52.042;5.648;2023-05-10T03:01:47;83.53;;;41.58;;
25073;SDS011;13066;52.042;5.648;2023-05-10T03:04:15;73.13;;;41.00;;
25073;SDS011;13066;52.042;5.648;2023-05-10T03:06:43;81.57;;;42.92;;
25073;SDS011;13066;52.042;5.648;2023-05-10T03:09:12;73.45;;;41.00;;
25073;SDS011;13066;52.042;5.648;2023-05-10T03:11:49;76.53;;;43.17;;
25073;SDS011;13066;52.042;5.648;2023-05-10T03:14:25;76.07;;;42.95;;
25073;SDS011;13066;52.042;5.648;2023-05-10T03:17:04;70.05;;;41.92;;
25073;SDS011;13066;52.042;5.648;2023-05-10T03:19:36;80.20;;;43.20;;
25073;SDS011;13066;52.042;5.648;2023-05-10T03:22:10;84.47;;;43.60;;
25073;SDS011;13066;52.042;5.648;2023-05-10T03:24:40;78.95;;;42.35;;
25073;SDS011;13066;52.042;5.648;2023-05-10T03:27:10;82.20;;;44.10;;
25073;SDS011;13066;52.042;5.648;2023-05-10T03:29:39;73.32;;;43.53;;
25073;SDS011;13066;52.042;5.648;2023-05-10T03:32:07;81.13;;;43.80;;
25073;SDS011;13066;52.042;5.648;2023-05-10T03:34:40;84.18;;;45.25;;
25073;SDS011;13066;52.042;5.648;2023-05-10T03:37:09;78.65;;;44.92;;
25073;SDS011;13066;52.042;5.648;2023-05-10T03:39:37;82.35;;;46.05;;
25073;SDS011;13066;52.042;5.648;2023-05-10T03:42:07;84.57;;;45.53;;
25073;SDS011;13066;52.042;5.648;2023-05-10T03:44:39;85.00;;;45.38;;
25073;SDS011;13066;52.042;5.648;2023-05-10T03:47:07;88.70;;;45.72;;
25073;SDS011;13066;52.042;5.648;2023-05-10T03:49:36;90.25;;;46.60;;
25073;SDS011;13066;52.042;5.648;2023-05-10T03:52:04;89.47;;;46.95;;
25073;SDS011;13066;52.042;5.648;2023-05-10T03:54:33;96.95;;;48.50;;
25073;SDS011;13066;52.042;5.648;2023-05-10T03:57:01;99.72;;;48.05;;
25073;SDS011;13066;52.042;5.648;2023-05-10T03:59:31;98.22;;;47.83;;
25073;SDS011;13066;52.042;5.648;2023-05-10T04:02:00;96.10;;;46.83;;
25073;SDS011;13066;52.042;5.648;2023-05-10T04:04:29;91.93;;;46.05;;
25073;SDS011;13066;52.042;5.648;2023-05-10T04:06:57;86.78;;;44.75;;
25073;SDS011;13066;52.042;5.648;2023-05-10T04:09:25;84.65;;;42.05;;
25073;SDS011;13066;52.042;5.648;2023-05-10T04:11:53;85.07;;;42.00;;
25073;SDS011;13066;52.042;5.648;2023-05-10T04:14:21;84.53;;;42.55;;
25073;SDS011;13066;52.042;5.648;2023-05-10T04:16:49;83.10;;;42.42;;
25073;SDS011;13066;52.042;5.648;2023-05-10T04:19:18;96.35;;;43.20;;
25073;SDS011;13066;52.042;5.648;2023-05-10T04:21:46;87.53;;;42.90;;
25073;SDS011;13066;52.042;5.648;2023-05-10T04:24:14;94.50;;;43.13;;
25073;SDS011;13066;52.042;5.648;2023-05-10T04:26:42;101.97;;;44.50;;
25073;SDS011;13066;52.042;5.648;2023-05-10T04:29:10;99.00;;;43.97;;
25073;SDS011;13066;52.042;5.648;2023-05-10T04:31:38;96.55;;;43.15;;
25073;SDS011;13066;52.042;5.648;2023-05-10T04:34:06;101.22;;;46.60;;
25073;SDS011;13066;52.042;5.648;2023-05-10T04:36:36;88.70;;;44.10;;
25073;SDS011;13066;52.042;5.648;2023-05-10T04:39:04;98.75;;;45.13;;
25073;SDS011;13066;52.042;5.648;2023-05-10T04:41:32;93.03;;;44.10;;
25073;SDS011;13066;52.042;5.648;2023-05-10T04:44:00;91.55;;;43.08;;
25073;SDS011;13066;52.042;5.648;2023-05-10T04:46:28;91.45;;;42.10;;
25073;SDS011;13066;52.042;5.648;2023-05-10T04:48:56;93.65;;;41.33;;
25073;SDS011;13066;52.042;5.648;2023-05-10T04:51:24;87.38;;;40.22;;
25073;SDS011;13066;52.042;5.648;2023-05-10T04:53:53;86.97;;;39.10;;
25073;SDS011;13066;52.042;5.648;2023-05-10T04:56:32;86.75;;;38.65;;
25073;SDS011;13066;52.042;5.648;2023-05-10T04:59:00;91.00;;;39.42;;
25073;SDS011;13066;52.042;5.648;2023-05-10T05:01:28;87.55;;;38.53;;
25073;SDS011;13066;52.042;5.648;2023-05-10T05:03:56;85.10;;;39.42;;
25073;SDS011;13066;52.042;5.648;2023-05-10T05:06:24;81.18;;;37.97;;
25073;SDS011;13066;52.042;5.648;2023-05-10T05:08:55;85.43;;;37.88;;
25073;SDS011;13066;52.042;5.648;2023-05-10T05:11:23;87.10;;;38.38;;
25073;SDS011;13066;52.042;5.648;2023-05-10T05:13:51;78.72;;;36.65;;
25073;SDS011;13066;52.042;5.648;2023-05-10T05:16:19;85.78;;;37.00;;
25073;SDS011;13066;52.042;5.648;2023-05-10T05:18:47;86.47;;;38.55;;
25073;SDS011;13066;52.042;5.648;2023-05-10T05:21:15;88.18;;;38.45;;
25073;SDS011;13066;52.042;5.648;2023-05-10T05:23:44;101.70;;;43.28;;
25073;SDS011;13066;52.042;5.648;2023-05-10T05:26:14;92.82;;;39.92;;
25073;SDS011;13066;52.042;5.648;2023-05-10T05:28:42;95.30;;;42.83;;
25073;SDS011;13066;52.042;5.648;2023-05-10T05:31:10;94.72;;;42.58;;
25073;SDS011;13066;52.042;5.648;2023-05-10T05:33:38;100.20;;;42.78;;
25073;SDS011;13066;52.042;5.648;2023-05-10T05:36:06;95.18;;;43.33;;
25073;SDS011;13066;52.042;5.648;2023-05-10T05:38:34;99.57;;;44.40;;
25073;SDS011;13066;52.042;5.648;2023-05-10T05:41:02;102.43;;;43.25;;
25073;SDS011;13066;52.042;5.648;2023-05-10T05:43:31;106.63;;;44.67;;
25073;SDS011;13066;52.042;5.648;2023-05-10T05:46:04;99.20;;;43.88;;
25073;SDS011;13066;52.042;5.648;2023-05-10T05:48:32;102.20;;;45.60;;
25073;SDS011;13066;52.042;5.648;2023-05-10T05:51:00;97.38;;;44.40;;
25073;SDS011;13066;52.042;5.648;2023-05-10T05:53:29;108.40;;;45.65;;
25073;SDS011;13066;52.042;5.648;2023-05-10T05:55:57;106.07;;;45.97;;
25073;SDS011;13066;52.042;5.648;2023-05-10T05:58:25;107.38;;;46.78;;
25073;SDS011;13066;52.042;5.648;2023-05-10T06:00:55;102.35;;;46.53;;
25073;SDS011;13066;52.042;5.648;2023-05-10T06:03:23;105.82;;;46.08;;
25073;SDS011;13066;52.042;5.648;2023-05-10T06:05:52;100.07;;;43.63;;
25073;SDS011;13066;52.042;5.648;2023-05-10T06:08:20;100.63;;;46.53;;
25073;SDS011;13066;52.042;5.648;2023-05-10T06:10:48;105.25;;;45.88;;
25073;SDS011;13066;52.042;5.648;2023-05-10T06:13:16;102.85;;;45.92;;
25073;SDS011;13066;52.042;5.648;2023-05-10T06:15:44;101.25;;;45.78;;
25073;SDS011;13066;52.042;5.648;2023-05-10T06:18:14;107.63;;;47.47;;
25073;SDS011;13066;52.042;5.648;2023-05-10T06:20:41;107.72;;;45.42;;
25073;SDS011;13066;52.042;5.648;2023-05-10T06:23:10;94.10;;;43.10;;
25073;SDS011;13066;52.042;5.648;2023-05-10T06:25:38;97.03;;;43.83;;
25073;SDS011;13066;52.042;5.648;2023-05-10T06:28:06;97.10;;;41.97;;
25073;SDS011;13066;52.042;5.648;2023-05-10T06:30:35;86.97;;;41.67;;
25073;SDS011;13066;52.042;5.648;2023-05-10T06:33:04;92.50;;;42.20;;
25073;SDS011;13066;52.042;5.648;2023-05-10T06:35:33;92.72;;;41.10;;
25073;SDS011;13066;52.042;5.648;2023-05-10T06:38:01;93.47;;;42.05;;
25073;SDS011;13066;52.042;5.648;2023-05-10T06:40:29;99.25;;;42.67;;
25073;SDS011;13066;52.042;5.648;2023-05-10T06:42:57;90.68;;;42.58;;
25073;SDS011;13066;52.042;5.648;2023-05-10T06:45:25;88.82;;;41.13;;
25073;SDS011;13066;52.042;5.648;2023-05-10T06:47:53;90.15;;;42.80;;
25073;SDS011;13066;52.042;5.648;2023-05-10T06:50:22;92.55;;;41.85;;
25073;SDS011;13066;52.042;5.648;2023-05-10T06:52:51;91.80;;;42.38;;
25073;SDS011;13066;52.042;5.648;2023-05-10T06:55:19;98.07;;;43.08;;
25073;SDS011;13066;52.042;5.648;2023-05-10T06:57:47;93.93;;;43.70;;
25073;SDS011;13066;52.042;5.648;2023-05-10T07:00:15;96.28;;;43.75;;
25073;SDS011;13066;52.042;5.648;2023-05-10T07:02:44;102.97;;;46.28;;
25073;SDS011;13066;52.042;5.648;2023-05-10T07:05:13;102.95;;;45.22;;
25073;SDS011;13066;52.042;5.648;2023-05-10T07:07:41;107.47;;;47.33;;
25073;SDS011;13066;52.042;5.648;2023-05-10T07:10:11;104.90;;;46.38;;
25073;SDS011;13066;52.042;5.648;2023-05-10T07:12:39;110.90;;;48.40;;
25073;SDS011;13066;52.042;5.648;2023-05-10T07:15:08;105.50;;;47.53;;
25073;SDS011;13066;52.042;5.648;2023-05-10T07:17:36;112.45;;;47.25;;
25073;SDS011;13066;52.042;5.648;2023-05-10T07:20:07;98.65;;;45.67;;
25073;SDS011;13066;52.042;5.648;2023-05-10T07:22:36;106.20;;;45.80;;
25073;SDS011;13066;52.042;5.648;2023-05-10T07:25:04;100.25;;;45.47;;
25073;SDS011;13066;52.042;5.648;2023-05-10T07:27:34;96.45;;;45.60;;
25073;SDS011;13066;52.042;5.648;2023-05-10T07:30:02;101.45;;;46.15;;
25073;SDS011;13066;52.042;5.648;2023-05-10T07:32:31;93.45;;;44.00;;
25073;SDS011;13066;52.042;5.648;2023-05-10T07:35:00;85.53;;;41.55;;
25073;SDS011;13066;52.042;5.648;2023-05-10T07:37:29;86.20;;;40.83;;
25073;SDS011;13066;52.042;5.648;2023-05-10T07:39:57;83.70;;;41.13;;
25073;SDS011;13066;52.042;5.648;2023-05-10T07:42:25;78.65;;;38.22;;
25073;SDS011;13066;52.042;5.648;2023-05-10T07:44:55;73.43;;;37.17;;
25073;SDS011;13066;52.042;5.648;2023-05-10T07:47:24;66.03;;;33.85;;
25073;SDS011;13066;52.042;5.648;2023-05-10T07:49:52;65.47;;;32.95;;
25073;SDS011;13066;52.042;5.648;2023-05-10T07:52:20;65.13;;;32.42;;
25073;SDS011;13066;52.042;5.648;2023-05-10T07:54:49;69.53;;;33.00;;
25073;SDS011;13066;52.042;5.648;2023-05-10T07:57:17;61.42;;;31.55;;
25073;SDS011;13066;52.042;5.648;2023-05-10T07:59:45;64.55;;;31.05;;
25073;SDS011;13066;52.042;5.648;2023-05-10T08:02:15;53.38;;;26.65;;
25073;SDS011;13066;52.042;5.648;2023-05-10T08:04:43;54.50;;;26.85;;
25073;SDS011;13066;52.042;5.648;2023-05-10T08:07:12;45.40;;;25.40;;
25073;SDS011;13066;52.042;5.648;2023-05-10T08:09:40;39.85;;;22.60;;
25073;SDS011;13066;52.042;5.648;2023-05-10T08:12:08;40.25;;;21.30;;
25073;SDS011;13066;52.042;5.648;2023-05-10T08:14:36;26.67;;;16.50;;
25073;SDS011;13066;52.042;5.648;2023-05-10T08:17:04;26.90;;;16.55;;
25073;SDS011;13066;52.042;5.648;2023-05-10T08:19:33;28.90;;;15.88;;
25073;SDS011;13066;52.042;5.648;2023-05-10T08:22:01;25.40;;;15.95;;
25073;SDS011;13066;52.042;5.648;2023-05-10T08:24:29;25.65;;;14.90;;
25073;SDS011;13066;52.042;5.648;2023-05-10T08:26:57;25.73;;;15.98;;
25073;SDS011;13066;52.042;5.648;2023-05-10T08:29:25;27.30;;;15.63;;
25073;SDS011;13066;52.042;5.648;2023-05-10T08:31:55;23.45;;;15.65;;
25073;SDS011;13066;52.042;5.648;2023-05-10T08:34:23;24.38;;;15.05;;
25073;SDS011;13066;52.042;5.648;2023-05-10T08:36:53;23.80;;;14.93;;
25073;SDS011;13066;52.042;5.648;2023-05-10T08:39:21;24.35;;;14.70;;
25073;SDS011;13066;52.042;5.648;2023-05-10T08:41:57;23.10;;;13.48;;
25073;SDS011;13066;52.042;5.648;2023-05-10T08:44:29;25.53;;;15.13;;
25073;SDS011;13066;52.042;5.648;2023-05-10T08:46:58;23.98;;;14.43;;
25073;SDS011;13066;52.042;5.648;2023-05-10T08:49:27;22.65;;;13.48;;
25073;SDS011;13066;52.042;5.648;2023-05-10T08:52:00;20.10;;;13.63;;
25073;SDS011;13066;52.042;5.648;2023-05-10T08:54:31;16.95;;;13.00;;
25073;SDS011;13066;52.042;5.648;2023-05-10T08:56:59;21.08;;;12.50;;
25073;SDS011;13066;52.042;5.648;2023-05-10T08:59:29;22.65;;;12.40;;
25073;SDS011;13066;52.042;5.648;2023-05-10T09:01:58;18.77;;;11.85;;
25073;SDS011;13066;52.042;5.648;2023-05-10T09:04:26;26.92;;;14.30;;
25073;SDS011;13066;52.042;5.648;2023-05-10T09:06:55;23.70;;;14.10;;
25073;SDS011;13066;52.042;5.648;2023-05-10T09:09:25;24.98;;;14.20;;
25073;SDS011;13066;52.042;5.648;2023-05-10T09:11:53;22.50;;;13.50;;
25073;SDS011;13066;52.042;5.648;2023-05-10T09:14:21;23.42;;;13.82;;
25073;SDS011;13066;52.042;5.648;2023-05-10T09:16:51;22.60;;;15.73;;
25073;SDS011;13066;52.042;5.648;2023-05-10T09:19:20;25.08;;;15.60;;
25073;SDS011;13066;52.042;5.648;2023-05-10T09:21:48;23.13;;;15.85;;
25073;SDS011;13066;52.042;5.648;2023-05-10T09:24:16;25.42;;;15.93;;
25073;SDS011;13066;52.042;5.648;2023-05-10T09:26:48;25.42;;;15.55;;
25073;SDS011;13066;52.042;5.648;2023-05-10T09:29:16;25.40;;;15.93;;
25073;SDS011;13066;52.042;5.648;2023-05-10T09:31:45;26.50;;;16.45;;
25073;SDS011;13066;52.042;5.648;2023-05-10T09:34:17;32.38;;;16.50;;
25073;SDS011;13066;52.042;5.648;2023-05-10T09:36:50;24.13;;;16.17;;
25073;SDS011;13066;52.042;5.648;2023-05-10T09:39:20;24.55;;;15.65;;
25073;SDS011;13066;52.042;5.648;2023-05-10T09:41:49;24.70;;;16.02;;
25073;SDS011;13066;52.042;5.648;2023-05-10T09:44:17;27.88;;;16.33;;
25073;SDS011;13066;52.042;5.648;2023-05-10T09:46:49;25.73;;;15.52;;
25073;SDS011;13066;52.042;5.648;2023-05-10T09:49:19;21.90;;;15.32;;
25073;SDS011;13066;52.042;5.648;2023-05-10T09:51:54;26.27;;;15.55;;
25073;SDS011;13066;52.042;5.648;2023-05-10T09:54:27;25.33;;;15.38;;
25073;SDS011;13066;52.042;5.648;2023-05-10T09:56:56;28.00;;;15.75;;
25073;SDS011;13066;52.042;5.648;2023-05-10T09:59:24;23.35;;;15.30;;
25073;SDS011;13066;52.042;5.648;2023-05-10T10:01:53;23.92;;;15.65;;
25073;SDS011;13066;52.042;5.648;2023-05-10T10:04:23;26.15;;;14.20;;
25073;SDS011;13066;52.042;5.648;2023-05-10T10:07:00;22.50;;;14.77;;
25073;SDS011;13066;52.042;5.648;2023-05-10T10:09:30;28.92;;;15.07;;
25073;SDS011;13066;52.042;5.648;2023-05-10T10:12:00;19.35;;;14.02;;
25073;SDS011;13066;52.042;5.648;2023-05-10T10:14:28;18.52;;;13.07;;
25073;SDS011;13066;52.042;5.648;2023-05-10T10:16:56;22.33;;;12.70;;
25073;SDS011;13066;52.042;5.648;2023-05-10T10:19:34;12.73;;;9.27;;
25073;SDS011;13066;52.042;5.648;2023-05-10T10:22:03;15.45;;;9.88;;
25073;SDS011;13066;52.042;5.648;2023-05-10T10:24:32;16.23;;;9.45;;
25073;SDS011;13066;52.042;5.648;2023-05-10T10:27:04;16.85;;;10.05;;
25073;SDS011;13066;52.042;5.648;2023-05-10T10:29:39;15.88;;;10.25;;
25073;SDS011;13066;52.042;5.648;2023-05-10T10:32:19;14.30;;;9.63;;
25073;SDS011;13066;52.042;5.648;2023-05-10T10:34:50;14.88;;;9.77;;
25073;SDS011;13066;52.042;5.648;2023-05-10T10:37:18;14.90;;;10.02;;
25073;SDS011;13066;52.042;5.648;2023-05-10T10:39:47;11.85;;;9.00;;
25073;SDS011;13066;52.042;5.648;2023-05-10T10:45:24;10.65;;;8.40;;
25073;SDS011;13066;52.042;5.648;2023-05-10T10:50:55;10.48;;;8.20;;
25073;SDS011;13066;52.042;5.648;2023-05-10T10:53:25;13.82;;;9.27;;
25073;SDS011;13066;52.042;5.648;2023-05-10T10:56:02;16.45;;;8.40;;
25073;SDS011;13066;52.042;5.648;2023-05-10T10:58:33;10.02;;;8.43;;
25073;SDS011;13066;52.042;5.648;2023-05-10T11:01:13;13.77;;;8.52;;
25073;SDS011;13066;52.042;5.648;2023-05-10T11:03:54;14.02;;;9.32;;
25073;SDS011;13066;52.042;5.648;2023-05-10T11:06:44;13.00;;;9.00;;
25073;SDS011;13066;52.042;5.648;2023-05-10T11:09:12;14.02;;;9.63;;
25073;SDS011;13066;52.042;5.648;2023-05-10T11:11:51;14.07;;;8.73;;
25073;SDS011;13066;52.042;5.648;2023-05-10T11:14:21;13.68;;;8.90;;
25073;SDS011;13066;52.042;5.648;2023-05-10T11:16:51;13.48;;;8.77;;
25073;SDS011;13066;52.042;5.648;2023-05-10T11:19:19;12.60;;;9.02;;
25073;SDS011;13066;52.042;5.648;2023-05-10T11:21:48;13.18;;;9.05;;
25073;SDS011;13066;52.042;5.648;2023-05-10T11:24:16;13.05;;;9.40;;
25073;SDS011;13066;52.042;5.648;2023-05-10T11:26:45;13.70;;;9.40;;
25073;SDS011;13066;52.042;5.648;2023-05-10T11:29:13;15.70;;;9.10;;
25073;SDS011;13066;52.042;5.648;2023-05-10T11:31:44;15.57;;;9.43;;
25073;SDS011;13066;52.042;5.648;2023-05-10T11:34:24;14.25;;;9.10;;
25073;SDS011;13066;52.042;5.648;2023-05-10T11:36:53;13.27;;;9.10;;
25073;SDS011;13066;52.042;5.648;2023-05-10T11:39:21;10.20;;;7.68;;
25073;SDS011;13066;52.042;5.648;2023-05-10T11:41:53;12.55;;;8.13;;
25073;SDS011;13066;52.042;5.648;2023-05-10T11:44:21;13.85;;;8.85;;
25073;SDS011;13066;52.042;5.648;2023-05-10T11:46:49;11.15;;;8.25;;
25073;SDS011;13066;52.042;5.648;2023-05-10T11:49:17;13.48;;;9.35;;
25073;SDS011;13066;52.042;5.648;2023-05-10T11:51:47;11.93;;;8.85;;
25073;SDS011;13066;52.042;5.648;2023-05-10T11:54:14;13.77;;;8.23;;
25073;SDS011;13066;52.042;5.648;2023-05-10T11:56:42;11.18;;;7.63;;
25073;SDS011;13066;52.042;5.648;2023-05-10T11:59:13;12.13;;;8.45;;
25073;SDS011;13066;52.042;5.648;2023-05-10T12:01:41;13.52;;;8.13;;
25073;SDS011;13066;52.042;5.648;2023-05-10T12:04:09;11.98;;;7.97;;
25073;SDS011;13066;52.042;5.648;2023-05-10T12:06:40;9.95;;;7.88;;
25073;SDS011;13066;52.042;5.648;2023-05-10T12:09:09;11.73;;;7.70;;
25073;SDS011;13066;52.042;5.648;2023-05-10T12:11:37;9.88;;;7.10;;
25073;SDS011;13066;52.042;5.648;2023-05-10T12:14:09;11.30;;;7.57;;
25073;SDS011;13066;52.042;5.648;2023-05-10T12:16:37;11.50;;;7.90;;
25073;SDS011;13066;52.042;5.648;2023-05-10T12:19:05;12.30;;;7.97;;
25073;SDS011;13066;52.042;5.648;2023-05-10T12:21:35;14.63;;;7.45;;
25073;SDS011;13066;52.042;5.648;2023-05-10T12:24:05;14.95;;;7.97;;
25073;SDS011;13066;52.042;5.648;2023-05-10T12:26:34;14.55;;;7.82;;
25073;SDS011;13066;52.042;5.648;2023-05-10T12:29:12;21.63;;;7.57;;
25073;SDS011;13066;52.042;5.648;2023-05-10T12:31:54;39.95;;;9.35;;
25073;SDS011;13066;52.042;5.648;2023-05-10T12:34:24;15.75;;;8.48;;
25073;SDS011;13066;52.042;5.648;2023-05-10T12:36:53;12.48;;;7.72;;
25073;SDS011;13066;52.042;5.648;2023-05-10T12:39:21;10.70;;;6.90;;
25073;SDS011;13066;52.042;5.648;2023-05-10T12:41:51;12.73;;;7.60;;
25073;SDS011;13066;52.042;5.648;2023-05-10T12:44:19;21.38;;;7.50;;
25073;SDS011;13066;52.042;5.648;2023-05-10T12:46:46;23.17;;;8.18;;
25073;SDS011;13066;52.042;5.648;2023-05-10T12:49:14;10.60;;;6.80;;
25073;SDS011;13066;52.042;5.648;2023-05-10T12:51:43;12.93;;;6.32;;
25073;SDS011;13066;52.042;5.648;2023-05-10T12:54:11;10.88;;;5.90;;
25073;SDS011;13066;52.042;5.648;2023-05-10T12:56:39;9.60;;;5.80;;
25073;SDS011;13066;52.042;5.648;2023-05-10T12:59:08;11.98;;;6.57;;
25073;SDS011;13066;52.042;5.648;2023-05-10T13:01:36;10.70;;;6.43;;
25073;SDS011;13066;52.042;5.648;2023-05-10T13:04:05;12.45;;;7.22;;
25073;SDS011;13066;52.042;5.648;2023-05-10T13:06:33;10.38;;;5.88;;
25073;SDS011;13066;52.042;5.648;2023-05-10T13:09:01;12.07;;;5.72;;
25073;SDS011;13066;52.042;5.648;2023-05-10T13:11:29;9.60;;;5.68;;
25073;SDS011;13066;52.042;5.648;2023-05-10T13:13:57;8.80;;;5.68;;
25073;SDS011;13066;52.042;5.648;2023-05-10T13:16:27;9.00;;;5.32;;
25073;SDS011;13066;52.042;5.648;2023-05-10T13:18:55;9.93;;;5.90;;
25073;SDS011;13066;52.042;5.648;2023-05-10T13:21:23;8.82;;;5.88;;
25073;SDS011;13066;52.042;5.648;2023-05-10T13:23:51;10.07;;;6.30;;
25073;SDS011;13066;52.042;5.648;2023-05-10T13:26:20;10.85;;;8.30;;
25073;SDS011;13066;52.042;5.648;2023-05-10T13:28:47;9.73;;;8.48;;
25073;SDS011;13066;52.042;5.648;2023-05-10T13:31:17;12.77;;;9.10;;
25073;SDS011;13066;52.042;5.648;2023-05-10T13:33:47;16.05;;;9.30;;
25073;SDS011;13066;52.042;5.648;2023-05-10T13:36:14;13.23;;;9.82;;
25073;SDS011;13066;52.042;5.648;2023-05-10T13:38:42;14.73;;;9.32;;
25073;SDS011;13066;52.042;5.648;2023-05-10T13:41:10;13.27;;;10.40;;
25073;SDS011;13066;52.042;5.648;2023-05-10T13:43:38;11.10;;;7.50;;
25073;SDS011;13066;52.042;5.648;2023-05-10T13:46:06;8.95;;;5.50;;
25073;SDS011;13066;52.042;5.648;2023-05-10T13:48:34;8.82;;;5.45;;
25073;SDS011;13066;52.042;5.648;2023-05-10T13:51:06;7.28;;;5.50;;
25073;SDS011;13066;52.042;5.648;2023-05-10T13:53:34;6.03;;;5.05;;
25073;SDS011;13066;52.042;5.648;2023-05-10T13:56:03;8.70;;;5.38;;
25073;SDS011;13066;52.042;5.648;2023-05-10T13:58:30;9.32;;;6.63;;
25073;SDS011;13066;52.042;5.648;2023-05-10T14:00:58;9.40;;;6.85;;
25073;SDS011;13066;52.042;5.648;2023-05-10T14:03:26;9.35;;;6.93;;
25073;SDS011;13066;52.042;5.648;2023-05-10T14:05:55;6.85;;;5.95;;
25073;SDS011;13066;52.042;5.648;2023-05-10T14:08:24;8.93;;;6.35;;
25073;SDS011;13066;52.042;5.648;2023-05-10T14:10:53;9.43;;;5.85;;
25073;SDS011;13066;52.042;5.648;2023-05-10T14:13:23;8.05;;;5.97;;
25073;SDS011;13066;52.042;5.648;2023-05-10T14:15:52;13.02;;;5.25;;
25073;SDS011;13066;52.042;5.648;2023-05-10T14:18:20;7.57;;;5.30;;
25073;SDS011;13066;52.042;5.648;2023-05-10T14:20:48;8.15;;;5.50;;
25073;SDS011;13066;52.042;5.648;2023-05-10T14:23:16;8.75;;;5.30;;
25073;SDS011;13066;52.042;5.648;2023-05-10T14:25:47;8.45;;;4.93;;
25073;SDS011;13066;52.042;5.648;2023-05-10T14:28:15;9.75;;;5.43;;
25073;SDS011;13066;52.042;5.648;2023-05-10T14:30:43;9.68;;;5.80;;
25073;SDS011;13066;52.042;5.648;2023-05-10T14:33:11;11.43;;;6.30;;
25073;SDS011;13066;52.042;5.648;2023-05-10T14:35:40;10.98;;;6.05;;
25073;SDS011;13066;52.042;5.648;2023-05-10T14:38:08;10.27;;;6.68;;
25073;SDS011;13066;52.042;5.648;2023-05-10T14:40:37;9.10;;;6.00;;
25073;SDS011;13066;52.042;5.648;2023-05-10T14:43:06;8.68;;;5.88;;
25073;SDS011;13066;52.042;5.648;2023-05-10T14:45:34;12.57;;;6.38;;